Venus R — P3TH9 — position and weather

sailwx.info

Track history (hours):
 
Tides and Currents Weather Stations Pressure Air Temp Water Temp Dewpoint Dewpoint Depression Visibility Wind Speed Wind Dir Waves Ship Positions

Venus R

Last reported at 2017-Oct-02 07:23 UTC. Time now 2017-Oct-20 03:36 UTC.
Position N 29°24' W 094°49'.
Warning: this ship's position is 17 days out of date.

Length 228 m; draft 11.9 m.

Type: Tanker. MMSI: 212084000.

Date/timePositionNaut miles runAvg speedWind from/ knotsBaromVisibWave heightAir tempDewpointWater temp
2017-Oct-02 07:23N 29°24' W 094°49'410.3
2017-Oct-02 07:00N 29°28' W 094°51'510.5
2017-Oct-02 06:30N 29°32' W 094°54'510.6
2017-Oct-02 06:00N 29°37' W 094°57'5 9.5
2017-Oct-02 05:30N 29°41' W 094°59'4 7.3
2017-Oct-02 05:00N 29°44' W 095°02'3 6.4
2017-Oct-02 04:30N 29°46' W 095°05'3 5.6
2017-Oct-02 04:00N 29°44' W 095°08'1 0.8
2017-Oct-02 02:11N 29°44' W 095°10'0 0.0
2017-Oct-01 11:47N 29°44' W 095°10'0 0.0
2017-Oct-01 11:29N 29°44' W 095°10'0 0.0
2017-Oct-01 10:59N 29°44' W 095°10'0 0.0
2017-Oct-01 10:29N 29°44' W 095°10'0 0.0
2017-Oct-01 07:08N 29°44' W 095°10'0 0.0
2017-Oct-01 06:41N 29°44' W 095°10'0 0.0
2017-Oct-01 06:26N 29°44' W 095°10'0 0.0
2017-Sep-29 16:05N 29°44' W 095°10'0 0.4
2017-Sep-29 16:00N 29°44' W 095°10'2 3.3
2017-Sep-29 15:30N 29°44' W 095°08'4 7.0
2017-Sep-29 15:00N 29°46' W 095°04'4 7.9
2017-Sep-29 14:30N 29°43' W 095°01'611.1
2017-Sep-29 14:00N 29°38' W 094°58'713.4
2017-Sep-29 13:30N 29°32' W 094°54'713.8
2017-Sep-29 13:00N 29°26' W 094°50'  
2017-Sep-26 12:02N 25°14' W 079°38'111.7
2017-Sep-26 11:58N 25°15' W 079°38'611.7
2017-Sep-26 11:25N 25°21' W 079°38'511.1
2017-Sep-26 11:00N 25°26' W 079°38'4 8.3
2017-Sep-26 10:30N 25°30' W 079°38'4 8.0
2017-Sep-26 10:00N 25°34' W 079°38'4 8.0
2017-Sep-26 09:30N 25°38' W 079°39'4 8.3
2017-Sep-26 09:00N 25°42' W 079°39'5 9.5
2017-Sep-26 08:30N 25°47' W 079°39'510.3
2017-Sep-26 08:00N 25°51' W 079°41'612.8
2017-Sep-26 07:30N 25°56' W 079°47'612.9
2017-Sep-26 07:00N 26°00' W 079°52'714.1
2017-Sep-26 06:30N 26°05' W 079°58'612.1
2017-Sep-26 06:00N 26°06' W 080°05'2 4.9
2017-Sep-26 05:30N 26°06' W 080°07'0 0.0
2017-Sep-26 04:59N 26°06' W 080°07'0 0.0
2017-Sep-26 04:29N 26°06' W 080°07'0 0.0
2017-Sep-26 03:59N 26°06' W 080°07'0 0.0
2017-Sep-26 03:29N 26°06' W 080°07'0 0.0
2017-Sep-26 02:59N 26°06' W 080°07'0 0.0
2017-Sep-26 02:29N 26°06' W 080°07'0 0.0
2017-Sep-26 01:59N 26°06' W 080°07'0 0.0
2017-Sep-26 01:29N 26°06' W 080°07'0 0.0
2017-Sep-26 00:59N 26°06' W 080°07'0 0.0
2017-Sep-26 00:29N 26°06' W 080°07'0 0.0
2017-Sep-25 23:59N 26°06' W 080°07'0 0.0
2017-Sep-25 23:29N 26°06' W 080°07'0 0.0
2017-Sep-25 22:59N 26°06' W 080°07'0 0.0
2017-Sep-25 22:29N 26°06' W 080°07'0 0.0
2017-Sep-25 21:59N 26°06' W 080°07'0 0.0
2017-Sep-25 21:29N 26°06' W 080°07'0 0.0
2017-Sep-25 20:59N 26°06' W 080°07'0 0.0
2017-Sep-25 20:29N 26°06' W 080°07'0 0.0
2017-Sep-25 19:59N 26°06' W 080°07'0 0.0
2017-Sep-25 19:29N 26°06' W 080°07'0 0.0
2017-Sep-25 18:59N 26°06' W 080°07'0 0.0
2017-Sep-25 18:29N 26°06' W 080°07'0 0.0
2017-Sep-25 17:59N 26°06' W 080°07'0 0.0
2017-Sep-25 17:29N 26°06' W 080°07'0 0.0
2017-Sep-25 16:47N 26°06' W 080°07'0 0.0
2017-Sep-25 16:29N 26°06' W 080°07'0 0.0
2017-Sep-25 15:59N 26°06' W 080°07'0 0.0
2017-Sep-25 15:29N 26°06' W 080°07'0 0.0
2017-Sep-25 14:59N 26°06' W 080°07'0 0.0
2017-Sep-25 14:29N 26°06' W 080°07'0 0.0
2017-Sep-25 13:59N 26°06' W 080°07'0 0.0
2017-Sep-25 13:29N 26°06' W 080°07'0 0.0
2017-Sep-25 12:59N 26°06' W 080°07'0 0.0
2017-Sep-25 12:29N 26°06' W 080°07'0 0.0
2017-Sep-25 11:59N 26°06' W 080°07'0 0.0
2017-Sep-25 11:29N 26°06' W 080°07'0 0.0
2017-Sep-25 10:59N 26°06' W 080°07'0 0.0
2017-Sep-25 10:29N 26°06' W 080°07'0 0.0
2017-Sep-25 09:59N 26°06' W 080°07'0 0.0
2017-Sep-25 09:29N 26°06' W 080°07'0 0.0
2017-Sep-25 08:59N 26°06' W 080°07'0 0.0
2017-Sep-25 08:29N 26°06' W 080°07'0 0.0
2017-Sep-25 07:59N 26°06' W 080°07'0 0.0
2017-Sep-25 07:29N 26°06' W 080°07'0 0.0
2017-Sep-25 06:59N 26°06' W 080°07'0 0.0
2017-Sep-25 06:29N 26°06' W 080°07'0 0.0
2017-Sep-25 05:59N 26°06' W 080°07'0 0.0
2017-Sep-25 05:29N 26°06' W 080°07'0 0.0
2017-Sep-25 04:59N 26°06' W 080°07'0 0.0
2017-Sep-25 04:29N 26°06' W 080°07'0 0.0
2017-Sep-25 03:59N 26°06' W 080°07'0 0.0
2017-Sep-25 03:29N 26°06' W 080°07'0 0.0
2017-Sep-25 02:59N 26°06' W 080°07'0 0.0
2017-Sep-25 02:29N 26°06' W 080°07'0 0.0
2017-Sep-25 01:59N 26°06' W 080°07'0 0.0
2017-Sep-25 01:29N 26°06' W 080°07'0 0.0
2017-Sep-25 00:59N 26°06' W 080°07'0 0.0
2017-Sep-25 00:29N 26°06' W 080°07'0 0.0
2017-Sep-24 23:59N 26°06' W 080°07'0 0.0
2017-Sep-24 23:29N 26°06' W 080°07'0 0.0
2017-Sep-24 22:59N 26°06' W 080°07'0 0.0
2017-Sep-24 22:29N 26°06' W 080°07'0 0.0
2017-Sep-24 21:59N 26°06' W 080°07'0 0.0
2017-Sep-24 21:29N 26°06' W 080°07'0 0.0
2017-Sep-24 20:59N 26°06' W 080°07'0 0.0
2017-Sep-24 20:29N 26°06' W 080°07'0 0.0
2017-Sep-24 19:59N 26°06' W 080°07'0 0.0
2017-Sep-24 19:29N 26°06' W 080°07'0 0.0
2017-Sep-24 18:59N 26°06' W 080°07'0 0.0
2017-Sep-24 18:29N 26°06' W 080°07'0 0.0
2017-Sep-24 17:59N 26°06' W 080°07'0 0.0
2017-Sep-24 17:29N 26°06' W 080°07'0 0.0
2017-Sep-24 16:59N 26°06' W 080°07'0 0.0
2017-Sep-24 16:29N 26°06' W 080°07'0 0.0
2017-Sep-24 15:59N 26°06' W 080°07'0 0.0
2017-Sep-24 15:29N 26°06' W 080°07'0 0.0
2017-Sep-24 14:59N 26°06' W 080°07'0 0.0
2017-Sep-24 14:29N 26°06' W 080°07'0 0.0
2017-Sep-24 13:59N 26°06' W 080°07'0 0.0
2017-Sep-24 13:31N 26°06' W 080°07'2 4.8
2017-Sep-24 13:00N 26°06' W 080°05'2 4.8
2017-Sep-24 12:30N 26°06' W 080°02'3 5.2
2017-Sep-24 12:00N 26°08' W 080°04'0 0.3
2017-Sep-24 11:30N 26°08' W 080°04'0 0.1
2017-Sep-24 11:00N 26°08' W 080°04'0 0.0
2017-Sep-24 10:30N 26°08' W 080°04'0 0.1
2017-Sep-24 10:00N 26°08' W 080°04'0 0.1
2017-Sep-24 09:30N 26°08' W 080°04'0 0.2
2017-Sep-24 09:00N 26°08' W 080°04'0 0.0
2017-Sep-24 08:30N 26°08' W 080°04'0 0.1
2017-Sep-24 08:00N 26°08' W 080°04'0 0.0
2017-Sep-24 07:30N 26°08' W 080°04'0 0.0
2017-Sep-24 07:00N 26°08' W 080°04'0 0.0
2017-Sep-24 06:30N 26°08' W 080°04'0 0.0
2017-Sep-24 06:00N 26°08' W 080°04'0 0.0
2017-Sep-24 05:30N 26°08' W 080°04'0 0.0
2017-Sep-24 05:00N 26°08' W 080°04'0 0.0
2017-Sep-24 04:30N 26°08' W 080°04'0 0.0
2017-Sep-24 04:00N 26°08' W 080°04'0 0.0
2017-Sep-24 03:30N 26°08' W 080°04'0 0.1
2017-Sep-24 03:00N 26°08' W 080°04'0 0.0
2017-Sep-24 02:30N 26°08' W 080°04'0 0.0
2017-Sep-24 02:00N 26°08' W 080°04'0 0.1
2017-Sep-24 01:30N 26°08' W 080°04'0 0.0
2017-Sep-24 01:00N 26°08' W 080°04'0 0.0
2017-Sep-24 00:30N 26°08' W 080°04'0 0.1
2017-Sep-24 00:00N 26°08' W 080°04'0 0.0
2017-Sep-23 23:30N 26°08' W 080°04'0 0.0
2017-Sep-23 23:00N 26°08' W 080°04'0 0.0
2017-Sep-23 22:30N 26°08' W 080°04'0 0.0
2017-Sep-23 22:00N 26°08' W 080°04'0 0.0
2017-Sep-23 21:30N 26°08' W 080°04'0 0.0
2017-Sep-23 21:00N 26°08' W 080°04'0 0.0
2017-Sep-23 20:30N 26°08' W 080°04'0 0.1
2017-Sep-23 20:00N 26°08' W 080°04'  
Track history (hours):
 
Tides and Currents Weather Stations Pressure Air Temp Water Temp Dewpoint Dewpoint Depression Visibility Wind Speed Wind Dir Waves Ship Positions

Venus R

Last reported at 2017-Oct-02 07:23 UTC. Time now 2017-Oct-20 03:36 UTC.
Position N 29°24' W 094°49'.
Warning: this ship's position is 17 days out of date.

Length 228 m; draft 11.9 m.

Type: Tanker. MMSI: 212084000.

Date/timePositionNaut miles runAvg speedWind from/ knotsBaromVisibWave heightAir tempDewpointWater temp
2017-Oct-02 07:23N 29°24' W 094°49'410.3
2017-Oct-02 07:00N 29°28' W 094°51'510.5
2017-Oct-02 06:30N 29°32' W 094°54'510.6
2017-Oct-02 06:00N 29°37' W 094°57'5 9.5
2017-Oct-02 05:30N 29°41' W 094°59'4 7.3
2017-Oct-02 05:00N 29°44' W 095°02'3 6.4
2017-Oct-02 04:30N 29°46' W 095°05'3 5.6
2017-Oct-02 04:00N 29°44' W 095°08'1 0.8
2017-Oct-02 02:11N 29°44' W 095°10'0 0.0
2017-Oct-01 11:47N 29°44' W 095°10'0 0.0
2017-Oct-01 11:29N 29°44' W 095°10'0 0.0
2017-Oct-01 10:59N 29°44' W 095°10'0 0.0
2017-Oct-01 10:29N 29°44' W 095°10'0 0.0
2017-Oct-01 07:08N 29°44' W 095°10'0 0.0
2017-Oct-01 06:41N 29°44' W 095°10'0 0.0
2017-Oct-01 06:26N 29°44' W 095°10'0 0.0
2017-Sep-29 16:05N 29°44' W 095°10'0 0.4
2017-Sep-29 16:00N 29°44' W 095°10'2 3.3
2017-Sep-29 15:30N 29°44' W 095°08'4 7.0
2017-Sep-29 15:00N 29°46' W 095°04'4 7.9
2017-Sep-29 14:30N 29°43' W 095°01'611.1
2017-Sep-29 14:00N 29°38' W 094°58'713.4
2017-Sep-29 13:30N 29°32' W 094°54'713.8
2017-Sep-29 13:00N 29°26' W 094°50'  
2017-Sep-26 12:02N 25°14' W 079°38'111.7
2017-Sep-26 11:58N 25°15' W 079°38'611.7
2017-Sep-26 11:25N 25°21' W 079°38'511.1
2017-Sep-26 11:00N 25°26' W 079°38'4 8.3
2017-Sep-26 10:30N 25°30' W 079°38'4 8.0
2017-Sep-26 10:00N 25°34' W 079°38'4 8.0
2017-Sep-26 09:30N 25°38' W 079°39'4 8.3
2017-Sep-26 09:00N 25°42' W 079°39'5 9.5
2017-Sep-26 08:30N 25°47' W 079°39'510.3
2017-Sep-26 08:00N 25°51' W 079°41'612.8
2017-Sep-26 07:30N 25°56' W 079°47'612.9
2017-Sep-26 07:00N 26°00' W 079°52'714.1
2017-Sep-26 06:30N 26°05' W 079°58'612.1
2017-Sep-26 06:00N 26°06' W 080°05'2 4.9
2017-Sep-26 05:30N 26°06' W 080°07'0 0.0
2017-Sep-26 04:59N 26°06' W 080°07'0 0.0
2017-Sep-26 04:29N 26°06' W 080°07'0 0.0
2017-Sep-26 03:59N 26°06' W 080°07'0 0.0
2017-Sep-26 03:29N 26°06' W 080°07'0 0.0
2017-Sep-26 02:59N 26°06' W 080°07'0 0.0
2017-Sep-26 02:29N 26°06' W 080°07'0 0.0
2017-Sep-26 01:59N 26°06' W 080°07'0 0.0
2017-Sep-26 01:29N 26°06' W 080°07'0 0.0
2017-Sep-26 00:59N 26°06' W 080°07'0 0.0
2017-Sep-26 00:29N 26°06' W 080°07'0 0.0
2017-Sep-25 23:59N 26°06' W 080°07'0 0.0
2017-Sep-25 23:29N 26°06' W 080°07'0 0.0
2017-Sep-25 22:59N 26°06' W 080°07'0 0.0
2017-Sep-25 22:29N 26°06' W 080°07'0 0.0
2017-Sep-25 21:59N 26°06' W 080°07'0 0.0
2017-Sep-25 21:29N 26°06' W 080°07'0 0.0
2017-Sep-25 20:59N 26°06' W 080°07'0 0.0
2017-Sep-25 20:29N 26°06' W 080°07'0 0.0
2017-Sep-25 19:59N 26°06' W 080°07'0 0.0
2017-Sep-25 19:29N 26°06' W 080°07'0 0.0
2017-Sep-25 18:59N 26°06' W 080°07'0 0.0
2017-Sep-25 18:29N 26°06' W 080°07'0 0.0
2017-Sep-25 17:59N 26°06' W 080°07'0 0.0
2017-Sep-25 17:29N 26°06' W 080°07'0 0.0
2017-Sep-25 16:47N 26°06' W 080°07'0 0.0
2017-Sep-25 16:29N 26°06' W 080°07'0 0.0
2017-Sep-25 15:59N 26°06' W 080°07'0 0.0
2017-Sep-25 15:29N 26°06' W 080°07'0 0.0
2017-Sep-25 14:59N 26°06' W 080°07'0 0.0
2017-Sep-25 14:29N 26°06' W 080°07'0 0.0
2017-Sep-25 13:59N 26°06' W 080°07'0 0.0
2017-Sep-25 13:29N 26°06' W 080°07'0 0.0
2017-Sep-25 12:59N 26°06' W 080°07'0 0.0
2017-Sep-25 12:29N 26°06' W 080°07'0 0.0
2017-Sep-25 11:59N 26°06' W 080°07'0 0.0
2017-Sep-25 11:29N 26°06' W 080°07'0 0.0
2017-Sep-25 10:59N 26°06' W 080°07'0 0.0
2017-Sep-25 10:29N 26°06' W 080°07'0 0.0
2017-Sep-25 09:59N 26°06' W 080°07'0 0.0
2017-Sep-25 09:29N 26°06' W 080°07'0 0.0
2017-Sep-25 08:59N 26°06' W 080°07'0 0.0
2017-Sep-25 08:29N 26°06' W 080°07'0 0.0
2017-Sep-25 07:59N 26°06' W 080°07'0 0.0
2017-Sep-25 07:29N 26°06' W 080°07'0 0.0
2017-Sep-25 06:59N 26°06' W 080°07'0 0.0
2017-Sep-25 06:29N 26°06' W 080°07'0 0.0
2017-Sep-25 05:59N 26°06' W 080°07'0 0.0
2017-Sep-25 05:29N 26°06' W 080°07'0 0.0
2017-Sep-25 04:59N 26°06' W 080°07'0 0.0
2017-Sep-25 04:29N 26°06' W 080°07'0 0.0
2017-Sep-25 03:59N 26°06' W 080°07'0 0.0
2017-Sep-25 03:29N 26°06' W 080°07'0 0.0
2017-Sep-25 02:59N 26°06' W 080°07'0 0.0
2017-Sep-25 02:29N 26°06' W 080°07'0 0.0
2017-Sep-25 01:59N 26°06' W 080°07'0 0.0
2017-Sep-25 01:29N 26°06' W 080°07'0 0.0
2017-Sep-25 00:59N 26°06' W 080°07'0 0.0
2017-Sep-25 00:29N 26°06' W 080°07'0 0.0
2017-Sep-24 23:59N 26°06' W 080°07'0 0.0
2017-Sep-24 23:29N 26°06' W 080°07'0 0.0
2017-Sep-24 22:59N 26°06' W 080°07'0 0.0
2017-Sep-24 22:29N 26°06' W 080°07'0 0.0
2017-Sep-24 21:59N 26°06' W 080°07'0 0.0
2017-Sep-24 21:29N 26°06' W 080°07'0 0.0
2017-Sep-24 20:59N 26°06' W 080°07'0 0.0
2017-Sep-24 20:29N 26°06' W 080°07'0 0.0
2017-Sep-24 19:59N 26°06' W 080°07'0 0.0
2017-Sep-24 19:29N 26°06' W 080°07'0 0.0
2017-Sep-24 18:59N 26°06' W 080°07'0 0.0
2017-Sep-24 18:29N 26°06' W 080°07'0 0.0
2017-Sep-24 17:59N 26°06' W 080°07'0 0.0
2017-Sep-24 17:29N 26°06' W 080°07'0 0.0
2017-Sep-24 16:59N 26°06' W 080°07'0 0.0
2017-Sep-24 16:29N 26°06' W 080°07'0 0.0
2017-Sep-24 15:59N 26°06' W 080°07'0 0.0
2017-Sep-24 15:29N 26°06' W 080°07'0 0.0
2017-Sep-24 14:59N 26°06' W 080°07'0 0.0
2017-Sep-24 14:29N 26°06' W 080°07'0 0.0
2017-Sep-24 13:59N 26°06' W 080°07'0 0.0
2017-Sep-24 13:31N 26°06' W 080°07'2 4.8
2017-Sep-24 13:00N 26°06' W 080°05'2 4.8
2017-Sep-24 12:30N 26°06' W 080°02'3 5.2
2017-Sep-24 12:00N 26°08' W 080°04'0 0.3
2017-Sep-24 11:30N 26°08' W 080°04'0 0.1
2017-Sep-24 11:00N 26°08' W 080°04'0 0.0
2017-Sep-24 10:30N 26°08' W 080°04'0 0.1
2017-Sep-24 10:00N 26°08' W 080°04'0 0.1
2017-Sep-24 09:30N 26°08' W 080°04'0 0.2
2017-Sep-24 09:00N 26°08' W 080°04'0 0.0
2017-Sep-24 08:30N 26°08' W 080°04'0 0.1
2017-Sep-24 08:00N 26°08' W 080°04'0 0.0
2017-Sep-24 07:30N 26°08' W 080°04'0 0.0
2017-Sep-24 07:00N 26°08' W 080°04'0 0.0
2017-Sep-24 06:30N 26°08' W 080°04'0 0.0
2017-Sep-24 06:00N 26°08' W 080°04'0 0.0
2017-Sep-24 05:30N 26°08' W 080°04'0 0.0
2017-Sep-24 05:00N 26°08' W 080°04'0 0.0
2017-Sep-24 04:30N 26°08' W 080°04'0 0.0
2017-Sep-24 04:00N 26°08' W 080°04'0 0.0
2017-Sep-24 03:30N 26°08' W 080°04'0 0.1
2017-Sep-24 03:00N 26°08' W 080°04'0 0.0
2017-Sep-24 02:30N 26°08' W 080°04'0 0.0
2017-Sep-24 02:00N 26°08' W 080°04'0 0.1
2017-Sep-24 01:30N 26°08' W 080°04'0 0.0
2017-Sep-24 01:00N 26°08' W 080°04'0 0.0
2017-Sep-24 00:30N 26°08' W 080°04'0 0.1
2017-Sep-24 00:00N 26°08' W 080°04'0 0.0
2017-Sep-23 23:30N 26°08' W 080°04'0 0.0
2017-Sep-23 23:00N 26°08' W 080°04'0 0.0
2017-Sep-23 22:30N 26°08' W 080°04'0 0.0
2017-Sep-23 22:00N 26°08' W 080°04'0 0.0
2017-Sep-23 21:30N 26°08' W 080°04'0 0.0
2017-Sep-23 21:00N 26°08' W 080°04'0 0.0
2017-Sep-23 20:30N 26°08' W 080°04'0 0.1
2017-Sep-23 20:00N 26°08' W 080°04'  

Dump ship's entire track history